No particular awareness of the weather is required.    There are no Weather-warnings


Meteo18 Weather Cam more information Meteo18 Weather Cam


Thunder radar more information blitzortung!


Rain radar more information rain snow radar


Visit our other weather sites:

Template documentation
and downloads

And another site



Weather Underground History page Text

Daily Summary for June 12, 2017 Units:  Both    English   Metric
« Previous Day
Next Day »
Daily Weekly Monthly Yearly Custom
  High: Low: Average:
Temperature: 76.6 °F /  24.8 °C 60.4 °F /  15.8 °C 68.9 °F /  20.5 °C
Dew Point: 63 °F /  17.2 °C 50.9 °F /  10.5 °C 55.2 °F /  12.9 °C
Humidity: 87 % 42 % 63 %
Wind Speed: 9 mph /  14.5 km/h - 2.6 mph /  4.2 km/h
Wind Gust: 12 mph /  19.3 km/h - -
Wind:- - West
Pressure: 30.2 in /  1022.2 hPa 30.1 in /  1018.2 hPa -
Precipitation: 0 in /  0.0 mm    
Historical Graphs
 
 
Tabular Data for June 12, 2017
Time Temperature Dew Point Pressure Wind Wind Speed Wind Gust Humidity Rainfall Rate (Hourly)
00:02 73.8 °F /  23.2 °C 63 °F /  17.2 °C 30.1 in /  1018.2 hPa NW 3 mph /  4.8 km/h 7 mph /  11.3 km/h 69 % 0 in /  0.0 mm
00:12 73.8 °F /  23.2 °C 63 °F /  17.2 °C 30.1 in /  1018.2 hPa NNW 1 mph /  1.6 km/h 6 mph /  9.7 km/h 69 % 0 in /  0.0 mm
00:17 73.8 °F /  23.2 °C 62.6 °F /  17.0 °C 30.1 in /  1018.2 hPa NNW 2 mph /  3.2 km/h 6 mph /  9.7 km/h 68 % 0 in /  0.0 mm
00:22 73.6 °F /  23.1 °C 62.4 °F /  16.9 °C 30.1 in /  1018.2 hPa WNW 2 mph /  3.2 km/h 6 mph /  9.7 km/h 68 % 0 in /  0.0 mm
00:32 73.4 °F /  23.0 °C 61 °F /  16.1 °C 30.1 in /  1018.2 hPa North 6 mph /  9.7 km/h 7 mph /  11.3 km/h 65 % 0 in /  0.0 mm
00:37 73.6 °F /  23.1 °C 59.4 °F /  15.2 °C 30.1 in /  1018.5 hPa WNW 7 mph /  11.3 km/h 8 mph /  12.9 km/h 61 % 0 in /  0.0 mm
00:42 73.8 °F /  23.2 °C 58.5 °F /  14.7 °C 30.1 in /  1018.5 hPa North 6 mph /  9.7 km/h 11 mph /  17.7 km/h 59 % 0 in /  0.0 mm
00:47 73.6 °F /  23.1 °C 58.3 °F /  14.6 °C 30.1 in /  1018.5 hPa NW 3 mph /  4.8 km/h 11 mph /  17.7 km/h 59 % 0 in /  0.0 mm
00:52 73.2 °F /  22.9 °C 58.1 °F /  14.5 °C 30.1 in /  1018.5 hPa NW 1 mph /  1.6 km/h 11 mph /  17.7 km/h 59 % 0 in /  0.0 mm
00:57 73 °F /  22.8 °C 58.3 °F /  14.6 °C 30.1 in /  1018.5 hPa NNW 4 mph /  6.4 km/h 8 mph /  12.9 km/h 60 % 0 in /  0.0 mm
01:02 72.9 °F /  22.7 °C 58.1 °F /  14.5 °C 30.1 in /  1018.5 hPa NNW 2 mph /  3.2 km/h 9 mph /  14.5 km/h 60 % 0 in /  0.0 mm
01:12 72.3 °F /  22.4 °C 58.1 °F /  14.5 °C 30.1 in /  1018.5 hPa WNW 3 mph /  4.8 km/h 9 mph /  14.5 km/h 61 % 0 in /  0.0 mm
01:17 72.1 °F /  22.3 °C 58.5 °F /  14.7 °C 30.1 in /  1018.5 hPa WNW 4 mph /  6.4 km/h 8 mph /  12.9 km/h 62 % 0 in /  0.0 mm
01:22 72.1 °F /  22.3 °C 58.5 °F /  14.7 °C 30.1 in /  1018.5 hPa WNW 1 mph /  1.6 km/h 8 mph /  12.9 km/h 62 % 0 in /  0.0 mm
01:27 71.8 °F /  22.1 °C 58.1 °F /  14.5 °C 30.1 in /  1018.5 hPa NW 3 mph /  4.8 km/h 9 mph /  14.5 km/h 62 % 0 in /  0.0 mm
01:32 71.8 °F /  22.1 °C 58.5 °F /  14.7 °C 30.1 in /  1018.5 hPa NW 2 mph /  3.2 km/h 9 mph /  14.5 km/h 63 % 0 in /  0.0 mm
01:37 71.8 °F /  22.1 °C 58.5 °F /  14.7 °C 30.1 in /  1018.5 hPa NNW 2 mph /  3.2 km/h 8 mph /  12.9 km/h 63 % 0 in /  0.0 mm
01:42 71.4 °F /  21.9 °C 58.6 °F /  14.8 °C 30.1 in /  1018.5 hPa North 3 mph /  4.8 km/h 8 mph /  12.9 km/h 64 % 0 in /  0.0 mm
01:47 71.2 °F /  21.8 °C 59.4 °F /  15.2 °C 30.1 in /  1018.5 hPa NNE 1 mph /  1.6 km/h 7 mph /  11.3 km/h 66 % 0 in /  0.0 mm
01:52 70.9 °F /  21.6 °C 59.4 °F /  15.2 °C 30.1 in /  1018.5 hPa North 2 mph /  3.2 km/h 7 mph /  11.3 km/h 67 % 0 in /  0.0 mm
01:57 70.5 °F /  21.4 °C 59 °F /  15.0 °C 30.1 in /  1018.5 hPa North 2 mph /  3.2 km/h 6 mph /  9.7 km/h 67 % 0 in /  0.0 mm
02:02 70.5 °F /  21.4 °C 59 °F /  15.0 °C 30.1 in /  1018.5 hPa NNW 1 mph /  1.6 km/h 6 mph /  9.7 km/h 67 % 0 in /  0.0 mm
02:07 70.5 °F /  21.4 °C 59 °F /  15.0 °C 30.1 in /  1018.5 hPa North 2 mph /  3.2 km/h 4 mph /  6.4 km/h 67 % 0 in /  0.0 mm
02:12 70.5 °F /  21.4 °C 59 °F /  15.0 °C 30.1 in /  1018.5 hPa Calm   5 mph /  8.0 km/h 67 % 0 in /  0.0 mm
02:17 70.5 °F /  21.4 °C 59 °F /  15.0 °C 30.1 in /  1018.5 hPa North 1 mph /  1.6 km/h 5 mph /  8.0 km/h 67 % 0 in /  0.0 mm
02:22 70.3 °F /  21.3 °C 58.8 °F /  14.9 °C 30.1 in /  1018.5 hPa North 2 mph /  3.2 km/h 5 mph /  8.0 km/h 67 % 0 in /  0.0 mm
02:32 70.3 °F /  21.3 °C 59.4 °F /  15.2 °C 30.1 in /  1018.8 hPa Calm   5 mph /  8.0 km/h 68 % 0 in /  0.0 mm
02:37 70.2 °F /  21.2 °C 59.2 °F /  15.1 °C 30.1 in /  1018.8 hPa NW 1 mph /  1.6 km/h 5 mph /  8.0 km/h 68 % 0 in /  0.0 mm
02:47 69.6 °F /  20.9 °C 59.4 °F /  15.2 °C 30.1 in /  1018.8 hPa NW 1 mph /  1.6 km/h 3 mph /  4.8 km/h 70 % 0 in /  0.0 mm
02:52 69.6 °F /  20.9 °C 59.4 °F /  15.2 °C 30.1 in /  1018.8 hPa Calm   4 mph /  6.4 km/h 70 % 0 in /  0.0 mm
02:57 69.3 °F /  20.7 °C 59.5 °F /  15.3 °C 30.1 in /  1018.8 hPa WNW 2 mph /  3.2 km/h 4 mph /  6.4 km/h 71 % 0 in /  0.0 mm
03:02 69.1 °F /  20.6 °C 59.7 °F /  15.4 °C 30.1 in /  1018.8 hPa WNW 2 mph /  3.2 km/h 4 mph /  6.4 km/h 72 % 0 in /  0.0 mm
03:12 68.7 °F /  20.4 °C 59.7 °F /  15.4 °C 30.1 in /  1018.8 hPa Calm   3 mph /  4.8 km/h 73 % 0 in /  0.0 mm
03:17 68.5 °F /  20.3 °C 59.5 °F /  15.3 °C 30.1 in /  1018.8 hPa Calm   3 mph /  4.8 km/h 73 % 0 in /  0.0 mm
03:22 68.5 °F /  20.3 °C 59.9 °F /  15.5 °C 30.1 in /  1018.8 hPa Calm   3 mph /  4.8 km/h 74 % 0 in /  0.0 mm
03:32 68.4 °F /  20.2 °C 60.1 °F /  15.6 °C 30.1 in /  1019.2 hPa Calm   3 mph /  4.8 km/h 75 % 0 in /  0.0 mm
03:37 68.2 °F /  20.1 °C 60.3 °F /  15.7 °C 30.1 in /  1019.2 hPa West 1 mph /  1.6 km/h 3 mph /  4.8 km/h 76 % 0 in /  0.0 mm
03:42 68.2 °F /  20.1 °C 60.3 °F /  15.7 °C 30.1 in /  1019.2 hPa Calm   3 mph /  4.8 km/h 76 % 0 in /  0.0 mm
03:47 68 °F /  20.0 °C 60.4 °F /  15.8 °C 30.1 in /  1019.2 hPa Calm   3 mph /  4.8 km/h 77 % 0 in /  0.0 mm
03:52 68 °F /  20.0 °C 60.4 °F /  15.8 °C 30.1 in /  1019.2 hPa WNW 3 mph /  4.8 km/h 4 mph /  6.4 km/h 77 % 0 in /  0.0 mm
03:57 68 °F /  20.0 °C 60.4 °F /  15.8 °C 30.1 in /  1019.2 hPa NW 1 mph /  1.6 km/h 5 mph /  8.0 km/h 77 % 0 in /  0.0 mm
04:02 68 °F /  20.0 °C 60.4 °F /  15.8 °C 30.1 in /  1019.2 hPa West 1 mph /  1.6 km/h 5 mph /  8.0 km/h 77 % 0 in /  0.0 mm
04:07 67.8 °F /  19.9 °C 60.6 °F /  15.9 °C 30.1 in /  1019.5 hPa NW 2 mph /  3.2 km/h 6 mph /  9.7 km/h 78 % 0 in /  0.0 mm
04:17 67.5 °F /  19.7 °C 60.8 °F /  16.0 °C 30.1 in /  1019.5 hPa North 1 mph /  1.6 km/h 6 mph /  9.7 km/h 79 % 0 in /  0.0 mm
04:22 67.3 °F /  19.6 °C 61 °F /  16.1 °C 30.1 in /  1019.5 hPa NW 1 mph /  1.6 km/h 6 mph /  9.7 km/h 80 % 0 in /  0.0 mm
04:27 67.1 °F /  19.5 °C 60.8 °F /  16.0 °C 30.1 in /  1019.5 hPa NNW 1 mph /  1.6 km/h 4 mph /  6.4 km/h 80 % 0 in /  0.0 mm
04:32 66.9 °F /  19.4 °C 61 °F /  16.1 °C 30.1 in /  1019.5 hPa NNW 4 mph /  6.4 km/h 6 mph /  9.7 km/h 81 % 0 in /  0.0 mm
04:37 66.7 °F /  19.3 °C 60.8 °F /  16.0 °C 30.1 in /  1019.5 hPa North 4 mph /  6.4 km/h 9 mph /  14.5 km/h 81 % 0 in /  0.0 mm
04:42 66.6 °F /  19.2 °C 61 °F /  16.1 °C 30.1 in /  1019.5 hPa Calm   9 mph /  14.5 km/h 82 % 0 in /  0.0 mm
04:47 66.4 °F /  19.1 °C 61 °F /  16.1 °C 30.1 in /  1019.5 hPa Calm   7 mph /  11.3 km/h 83 % 0 in /  0.0 mm
04:52 66.2 °F /  19.0 °C 60.8 °F /  16.0 °C 30.1 in /  1019.9 hPa Calm   7 mph /  11.3 km/h 83 % 0 in /  0.0 mm
04:57 66 °F /  18.9 °C 61 °F /  16.1 °C 30.1 in /  1019.5 hPa WNW 2 mph /  3.2 km/h 4 mph /  6.4 km/h 84 % 0 in /  0.0 mm
05:02 65.7 °F /  18.7 °C 60.6 °F /  15.9 °C 30.1 in /  1019.9 hPa NW 4 mph /  6.4 km/h 4 mph /  6.4 km/h 84 % 0 in /  0.0 mm
05:07 65.5 °F /  18.6 °C 60.8 °F /  16.0 °C 30.1 in /  1019.5 hPa WNW 3 mph /  4.8 km/h 8 mph /  12.9 km/h 85 % 0 in /  0.0 mm
05:17 64.9 °F /  18.3 °C 60.6 °F /  15.9 °C 30.1 in /  1019.9 hPa West 3 mph /  4.8 km/h 8 mph /  12.9 km/h 86 % 0 in /  0.0 mm
05:22 64.9 °F /  18.3 °C 60.6 °F /  15.9 °C 30.1 in /  1019.9 hPa NW 1 mph /  1.6 km/h 8 mph /  12.9 km/h 86 % 0 in /  0.0 mm
05:27 64.8 °F /  18.2 °C 60.8 °F /  16.0 °C 30.1 in /  1019.9 hPa West 2 mph /  3.2 km/h 6 mph /  9.7 km/h 87 % 0 in /  0.0 mm
05:32 64.6 °F /  18.1 °C 60.6 °F /  15.9 °C 30.1 in /  1019.9 hPa NNW 1 mph /  1.6 km/h 6 mph /  9.7 km/h 87 % 0 in /  0.0 mm
05:37 64.2 °F /  17.9 °C 60.3 °F /  15.7 °C 30.1 in /  1019.9 hPa Calm   6 mph /  9.7 km/h 87 % 0 in /  0.0 mm
05:42 64.2 °F /  17.9 °C 60.3 °F /  15.7 °C 30.1 in /  1019.9 hPa NW 2 mph /  3.2 km/h 6 mph /  9.7 km/h 87 % 0 in /  0.0 mm
05:47 64 °F /  17.8 °C 60.1 °F /  15.6 °C 30.1 in /  1019.9 hPa WNW 1 mph /  1.6 km/h 6 mph /  9.7 km/h 87 % 0 in /  0.0 mm
05:52 64 °F /  17.8 °C 60.1 °F /  15.6 °C 30.1 in /  1019.9 hPa NW 2 mph /  3.2 km/h 6 mph /  9.7 km/h 87 % 0 in /  0.0 mm
05:57 63.9 °F /  17.7 °C 59.9 °F /  15.5 °C 30.1 in /  1019.9 hPa WNW 1 mph /  1.6 km/h 8 mph /  12.9 km/h 87 % 0 in /  0.0 mm
06:02 63.9 °F /  17.7 °C 59.9 °F /  15.5 °C 30.1 in /  1019.9 hPa NW 5 mph /  8.0 km/h 8 mph /  12.9 km/h 87 % 0 in /  0.0 mm
06:12 63.9 °F /  17.7 °C 59.9 °F /  15.5 °C 30.1 in /  1019.9 hPa West 1 mph /  1.6 km/h 7 mph /  11.3 km/h 87 % 0 in /  0.0 mm
06:17 63.7 °F /  17.6 °C 59.7 °F /  15.4 °C 30.1 in /  1019.9 hPa NW 5 mph /  8.0 km/h 10 mph /  16.1 km/h 87 % 0 in /  0.0 mm
06:22 63.5 °F /  17.5 °C 59.2 °F /  15.1 °C 30.1 in /  1019.9 hPa NNW 4 mph /  6.4 km/h 10 mph /  16.1 km/h 86 % 0 in /  0.0 mm
06:27 63.3 °F /  17.4 °C 59 °F /  15.0 °C 30.1 in /  1019.9 hPa NW 3 mph /  4.8 km/h 10 mph /  16.1 km/h 86 % 0 in /  0.0 mm
06:37 63.1 °F /  17.3 °C 58.6 °F /  14.8 °C 30.1 in /  1020.2 hPa Calm   7 mph /  11.3 km/h 85 % 0 in /  0.0 mm
06:42 63.1 °F /  17.3 °C 58.3 °F /  14.6 °C 30.1 in /  1020.2 hPa NNE 3 mph /  4.8 km/h 8 mph /  12.9 km/h 84 % 0 in /  0.0 mm
06:47 63 °F /  17.2 °C 58.1 °F /  14.5 °C 30.1 in /  1020.2 hPa NNW 3 mph /  4.8 km/h 8 mph /  12.9 km/h 84 % 0 in /  0.0 mm
06:52 63 °F /  17.2 °C 58.1 °F /  14.5 °C 30.1 in /  1020.2 hPa NNW 3 mph /  4.8 km/h 8 mph /  12.9 km/h 84 % 0 in /  0.0 mm
06:57 62.8 °F /  17.1 °C 57.6 °F /  14.2 °C 30.1 in /  1020.2 hPa NNW 5 mph /  8.0 km/h 8 mph /  12.9 km/h 83 % 0 in /  0.0 mm
07:02 62.8 °F /  17.1 °C 57.2 °F /  14.0 °C 30.1 in /  1020.2 hPa NNW 7 mph /  11.3 km/h 8 mph /  12.9 km/h 82 % 0 in /  0.0 mm
07:07 62.8 °F /  17.1 °C 57.2 °F /  14.0 °C 30.1 in /  1020.2 hPa North 1 mph /  1.6 km/h 8 mph /  12.9 km/h 82 % 0 in /  0.0 mm
07:12 62.8 °F /  17.1 °C 57.2 °F /  14.0 °C 30.1 in /  1020.2 hPa NNW 1 mph /  1.6 km/h 8 mph /  12.9 km/h 82 % 0 in /  0.0 mm
07:17 63 °F /  17.2 °C 57 °F /  13.9 °C 30.1 in /  1020.5 hPa WNW 2 mph /  3.2 km/h 8 mph /  12.9 km/h 81 % 0 in /  0.0 mm
07:27 62.8 °F /  17.1 °C 56.5 °F /  13.6 °C 30.1 in /  1020.5 hPa WNW 1 mph /  1.6 km/h 5 mph /  8.0 km/h 80 % 0 in /  0.0 mm
07:32 62.4 °F /  16.9 °C 55.8 °F /  13.2 °C 30.1 in /  1020.5 hPa NW 3 mph /  4.8 km/h 5 mph /  8.0 km/h 79 % 0 in /  0.0 mm
07:42 62.8 °F /  17.1 °C 55 °F /  12.8 °C 30.2 in /  1020.9 hPa NNE 3 mph /  4.8 km/h 6 mph /  9.7 km/h 76 % 0 in /  0.0 mm
07:47 63 °F /  17.2 °C 54.9 °F /  12.7 °C 30.1 in /  1020.5 hPa North 6 mph /  9.7 km/h 10 mph /  16.1 km/h 75 % 0 in /  0.0 mm
07:57 63.3 °F /  17.4 °C 55.9 °F /  13.3 °C 30.2 in /  1020.9 hPa North 6 mph /  9.7 km/h 10 mph /  16.1 km/h 77 % 0 in /  0.0 mm
08:02 63.1 °F /  17.3 °C 56.1 °F /  13.4 °C 30.2 in /  1020.9 hPa NW 3 mph /  4.8 km/h 10 mph /  16.1 km/h 78 % 0 in /  0.0 mm
08:07 63.1 °F /  17.3 °C 56.1 °F /  13.4 °C 30.2 in /  1020.9 hPa NW 6 mph /  9.7 km/h 11 mph /  17.7 km/h 78 % 0 in /  0.0 mm
08:12 63 °F /  17.2 °C 55.9 °F /  13.3 °C 30.2 in /  1021.2 hPa WNW 3 mph /  4.8 km/h 11 mph /  17.7 km/h 78 % 0 in /  0.0 mm
08:17 62.8 °F /  17.1 °C 55.8 °F /  13.2 °C 30.2 in /  1021.2 hPa NNW 2 mph /  3.2 km/h 10 mph /  16.1 km/h 78 % 0 in /  0.0 mm
08:22 62.6 °F /  17.0 °C 55.2 °F /  12.9 °C 30.2 in /  1021.2 hPa NW 3 mph /  4.8 km/h 10 mph /  16.1 km/h 77 % 0 in /  0.0 mm
08:32 62.6 °F /  17.0 °C 55.2 °F /  12.9 °C 30.2 in /  1021.2 hPa NW 7 mph /  11.3 km/h 11 mph /  17.7 km/h 77 % 0 in /  0.0 mm
08:37 62.6 °F /  17.0 °C 54.9 °F /  12.7 °C 30.2 in /  1021.2 hPa NNW 3 mph /  4.8 km/h 11 mph /  17.7 km/h 76 % 0 in /  0.0 mm
08:42 62.8 °F /  17.1 °C 55 °F /  12.8 °C 30.2 in /  1021.2 hPa Calm   11 mph /  17.7 km/h 76 % 0 in /  0.0 mm
08:47 62.8 °F /  17.1 °C 54.7 °F /  12.6 °C 30.2 in /  1021.2 hPa NNE 2 mph /  3.2 km/h 10 mph /  16.1 km/h 75 % 0 in /  0.0 mm
08:52 62.8 °F /  17.1 °C 54.3 °F /  12.4 °C 30.2 in /  1021.6 hPa NNW 2 mph /  3.2 km/h 10 mph /  16.1 km/h 74 % 0 in /  0.0 mm
08:57 62.6 °F /  17.0 °C 54.5 °F /  12.5 °C 30.2 in /  1021.6 hPa North 3 mph /  4.8 km/h 9 mph /  14.5 km/h 75 % 0 in /  0.0 mm
09:02 62.6 °F /  17.0 °C 54.5 °F /  12.5 °C 30.2 in /  1021.6 hPa North 1 mph /  1.6 km/h 9 mph /  14.5 km/h 75 % 0 in /  0.0 mm
09:12 63 °F /  17.2 °C 54.1 °F /  12.3 °C 30.2 in /  1021.6 hPa NNW 1 mph /  1.6 km/h 8 mph /  12.9 km/h 73 % 0 in /  0.0 mm
09:17 63.7 °F /  17.6 °C 54.9 °F /  12.7 °C 30.2 in /  1021.6 hPa NNW 7 mph /  11.3 km/h 11 mph /  17.7 km/h 73 % 0 in /  0.0 mm
09:22 63.9 °F /  17.7 °C 54.3 °F /  12.4 °C 30.2 in /  1021.6 hPa NNE 6 mph /  9.7 km/h 11 mph /  17.7 km/h 71 % 0 in /  0.0 mm
09:32 64.2 °F /  17.9 °C 55 °F /  12.8 °C 30.2 in /  1021.6 hPa SW 2 mph /  3.2 km/h 10 mph /  16.1 km/h 72 % 0 in /  0.0 mm
09:37 64.2 °F /  17.9 °C 54.7 °F /  12.6 °C 30.2 in /  1021.6 hPa North 3 mph /  4.8 km/h 10 mph /  16.1 km/h 71 % 0 in /  0.0 mm
09:42 64.4 °F /  18.0 °C 54.9 °F /  12.7 °C 30.2 in /  1021.6 hPa NNW 5 mph /  8.0 km/h 10 mph /  16.1 km/h 71 % 0 in /  0.0 mm
09:47 64.6 °F /  18.1 °C 54.1 °F /  12.3 °C 30.2 in /  1021.6 hPa WNW 4 mph /  6.4 km/h 12 mph /  19.3 km/h 69 % 0 in /  0.0 mm
09:52 64.6 °F /  18.1 °C 53.4 °F /  11.9 °C 30.2 in /  1021.6 hPa NW 3 mph /  4.8 km/h 12 mph /  19.3 km/h 67 % 0 in /  0.0 mm
10:02 65.1 °F /  18.4 °C 53.4 °F /  11.9 °C 30.2 in /  1021.6 hPa NW 8 mph /  12.9 km/h 11 mph /  17.7 km/h 66 % 0 in /  0.0 mm
10:07 64.9 °F /  18.3 °C 53.8 °F /  12.1 °C 30.2 in /  1021.6 hPa NNW 5 mph /  8.0 km/h 11 mph /  17.7 km/h 67 % 0 in /  0.0 mm
10:12 65.1 °F /  18.4 °C 54.7 °F /  12.6 °C 30.2 in /  1021.6 hPa NNW 3 mph /  4.8 km/h 11 mph /  17.7 km/h 69 % 0 in /  0.0 mm
10:17 65.5 °F /  18.6 °C 54.3 °F /  12.4 °C 30.2 in /  1021.6 hPa North 8 mph /  12.9 km/h 11 mph /  17.7 km/h 67 % 0 in /  0.0 mm
10:22 65.5 °F /  18.6 °C 54.3 °F /  12.4 °C 30.2 in /  1021.6 hPa NW 6 mph /  9.7 km/h 11 mph /  17.7 km/h 67 % 0 in /  0.0 mm
10:32 65.7 °F /  18.7 °C 54.3 °F /  12.4 °C 30.2 in /  1021.6 hPa WNW 2 mph /  3.2 km/h 10 mph /  16.1 km/h 67 % 0 in /  0.0 mm
10:37 65.8 °F /  18.8 °C 55 °F /  12.8 °C 30.2 in /  1021.9 hPa North 7 mph /  11.3 km/h 9 mph /  14.5 km/h 68 % 0 in /  0.0 mm
10:42 66 °F /  18.9 °C 54.7 °F /  12.6 °C 30.2 in /  1021.9 hPa NNE 4 mph /  6.4 km/h 9 mph /  14.5 km/h 67 % 0 in /  0.0 mm
10:47 66.2 °F /  19.0 °C 54.1 °F /  12.3 °C 30.2 in /  1021.9 hPa NW 3 mph /  4.8 km/h 10 mph /  16.1 km/h 65 % 0 in /  0.0 mm
10:52 66.4 °F /  19.1 °C 53.4 °F /  11.9 °C 30.2 in /  1021.9 hPa NNW 5 mph /  8.0 km/h 10 mph /  16.1 km/h 63 % 0 in /  0.0 mm
10:57 66.2 °F /  19.0 °C 53.2 °F /  11.8 °C 30.2 in /  1021.9 hPa NW 3 mph /  4.8 km/h 10 mph /  16.1 km/h 63 % 0 in /  0.0 mm
11:02 66 °F /  18.9 °C 52.2 °F /  11.2 °C 30.2 in /  1021.9 hPa NNW 7 mph /  11.3 km/h 10 mph /  16.1 km/h 61 % 0 in /  0.0 mm
11:07 66.4 °F /  19.1 °C 52.9 °F /  11.6 °C 30.2 in /  1021.9 hPa NW 3 mph /  4.8 km/h 9 mph /  14.5 km/h 62 % 0 in /  0.0 mm
11:12 66.7 °F /  19.3 °C 53.2 °F /  11.8 °C 30.2 in /  1021.9 hPa NW 5 mph /  8.0 km/h 9 mph /  14.5 km/h 62 % 0 in /  0.0 mm
11:17 66.9 °F /  19.4 °C 53.1 °F /  11.7 °C 30.2 in /  1021.9 hPa NNW 3 mph /  4.8 km/h 9 mph /  14.5 km/h 61 % 0 in /  0.0 mm
11:22 67.6 °F /  19.8 °C 54.1 °F /  12.3 °C 30.2 in /  1021.9 hPa NE 2 mph /  3.2 km/h 9 mph /  14.5 km/h 62 % 0 in /  0.0 mm
11:32 67.5 °F /  19.7 °C 53.6 °F /  12.0 °C 30.2 in /  1021.9 hPa NNE 4 mph /  6.4 km/h 9 mph /  14.5 km/h 61 % 0 in /  0.0 mm
11:42 67.6 °F /  19.8 °C 54.1 °F /  12.3 °C 30.2 in /  1021.9 hPa NNE 1 mph /  1.6 km/h 9 mph /  14.5 km/h 62 % 0 in /  0.0 mm
11:47 67.8 °F /  19.9 °C 53.4 °F /  11.9 °C 30.2 in /  1021.9 hPa NW 1 mph /  1.6 km/h 10 mph /  16.1 km/h 60 % 0 in /  0.0 mm
11:52 68.4 °F /  20.2 °C 54.3 °F /  12.4 °C 30.2 in /  1021.9 hPa NW 5 mph /  8.0 km/h 10 mph /  16.1 km/h 61 % 0 in /  0.0 mm
12:02 68.5 °F /  20.3 °C 54.1 °F /  12.3 °C 30.2 in /  1022.2 hPa West 6 mph /  9.7 km/h 9 mph /  14.5 km/h 60 % 0 in /  0.0 mm
12:12 67.8 °F /  19.9 °C 54 °F /  12.2 °C 30.2 in /  1022.2 hPa NNW 3 mph /  4.8 km/h 10 mph /  16.1 km/h 61 % 0 in /  0.0 mm
12:17 68.4 °F /  20.2 °C 54.3 °F /  12.4 °C 30.2 in /  1022.2 hPa North 3 mph /  4.8 km/h 10 mph /  16.1 km/h 61 % 0 in /  0.0 mm
12:22 68.4 °F /  20.2 °C 53.4 °F /  11.9 °C 30.2 in /  1022.2 hPa West 1 mph /  1.6 km/h 10 mph /  16.1 km/h 59 % 0 in /  0.0 mm
12:32 69.3 °F /  20.7 °C 54.9 °F /  12.7 °C 30.2 in /  1022.2 hPa NW 3 mph /  4.8 km/h 11 mph /  17.7 km/h 60 % 0 in /  0.0 mm
12:37 69.4 °F /  20.8 °C 54.5 °F /  12.5 °C 30.2 in /  1022.2 hPa West 5 mph /  8.0 km/h 10 mph /  16.1 km/h 59 % 0 in /  0.0 mm
12:42 69.3 °F /  20.7 °C 54.3 °F /  12.4 °C 30.2 in /  1022.2 hPa NW 9 mph /  14.5 km/h 10 mph /  16.1 km/h 59 % 0 in /  0.0 mm
12:47 68.7 °F /  20.4 °C 53.8 °F /  12.1 °C 30.2 in /  1021.9 hPa Calm   11 mph /  17.7 km/h 59 % 0 in /  0.0 mm
12:52 69.4 °F /  20.8 °C 54.5 °F /  12.5 °C 30.2 in /  1021.9 hPa West 2 mph /  3.2 km/h 11 mph /  17.7 km/h 59 % 0 in /  0.0 mm
12:57 69.6 °F /  20.9 °C 54.7 °F /  12.6 °C 30.2 in /  1021.9 hPa NW 4 mph /  6.4 km/h 11 mph /  17.7 km/h 59 % 0 in /  0.0 mm
13:02 70 °F /  21.1 °C 54 °F /  12.2 °C 30.2 in /  1021.9 hPa NNW 5 mph /  8.0 km/h 11 mph /  17.7 km/h 57 % 0 in /  0.0 mm
13:12 70.9 °F /  21.6 °C 54.9 °F /  12.7 °C 30.2 in /  1021.9 hPa NNE 2 mph /  3.2 km/h 10 mph /  16.1 km/h 57 % 0 in /  0.0 mm
13:17 70.3 °F /  21.3 °C 54 °F /  12.2 °C 30.2 in /  1021.9 hPa Calm   11 mph /  17.7 km/h 56 % 0 in /  0.0 mm
13:22 70.7 °F /  21.5 °C 55.2 °F /  12.9 °C 30.2 in /  1021.9 hPa NNW 4 mph /  6.4 km/h 11 mph /  17.7 km/h 58 % 0 in /  0.0 mm
13:27 70.9 °F /  21.6 °C 55.8 °F /  13.2 °C 30.2 in /  1021.9 hPa NNW 3 mph /  4.8 km/h 11 mph /  17.7 km/h 59 % 0 in /  0.0 mm
13:32 71.2 °F /  21.8 °C 54.3 °F /  12.4 °C 30.2 in /  1021.9 hPa WNW 6 mph /  9.7 km/h 8 mph /  12.9 km/h 55 % 0 in /  0.0 mm
13:37 70.5 °F /  21.4 °C 54.5 °F /  12.5 °C 30.2 in /  1021.6 hPa NNW 2 mph /  3.2 km/h 8 mph /  12.9 km/h 57 % 0 in /  0.0 mm
13:42 70.9 °F /  21.6 °C 54.3 °F /  12.4 °C 30.2 in /  1021.6 hPa WNW 3 mph /  4.8 km/h 8 mph /  12.9 km/h 56 % 0 in /  0.0 mm
13:47 70.9 °F /  21.6 °C 53.4 °F /  11.9 °C 30.2 in /  1021.6 hPa NNE 2 mph /  3.2 km/h 9 mph /  14.5 km/h 54 % 0 in /  0.0 mm
13:52 71.6 °F /  22.0 °C 54.5 °F /  12.5 °C 30.2 in /  1021.6 hPa NW 3 mph /  4.8 km/h 9 mph /  14.5 km/h 55 % 0 in /  0.0 mm
13:57 71.1 °F /  21.7 °C 53.6 °F /  12.0 °C 30.2 in /  1021.6 hPa North 3 mph /  4.8 km/h 10 mph /  16.1 km/h 54 % 0 in /  0.0 mm
14:02 71.2 °F /  21.8 °C 54.3 °F /  12.4 °C 30.2 in /  1021.6 hPa NW 4 mph /  6.4 km/h 10 mph /  16.1 km/h 55 % 0 in /  0.0 mm
14:07 72 °F /  22.2 °C 53.4 °F /  11.9 °C 30.2 in /  1021.6 hPa WSW 3 mph /  4.8 km/h 10 mph /  16.1 km/h 52 % 0 in /  0.0 mm
14:12 72.3 °F /  22.4 °C 53.2 °F /  11.8 °C 30.2 in /  1021.6 hPa WSW 6 mph /  9.7 km/h 8 mph /  12.9 km/h 51 % 0 in /  0.0 mm
14:17 72 °F /  22.2 °C 52.9 °F /  11.6 °C 30.2 in /  1021.6 hPa SW 4 mph /  6.4 km/h 10 mph /  16.1 km/h 51 % 0 in /  0.0 mm
14:22 72 °F /  22.2 °C 51.3 °F /  10.7 °C 30.2 in /  1021.6 hPa West 3 mph /  4.8 km/h 10 mph /  16.1 km/h 48 % 0 in /  0.0 mm
14:32 72.7 °F /  22.6 °C 54 °F /  12.2 °C 30.2 in /  1021.6 hPa NW 2 mph /  3.2 km/h 8 mph /  12.9 km/h 52 % 0 in /  0.0 mm
14:37 72.9 °F /  22.7 °C 53.6 °F /  12.0 °C 30.2 in /  1021.6 hPa WNW 6 mph /  9.7 km/h 10 mph /  16.1 km/h 51 % 0 in /  0.0 mm
14:42 72 °F /  22.2 °C 52.3 °F /  11.3 °C 30.2 in /  1021.6 hPa West 1 mph /  1.6 km/h 12 mph /  19.3 km/h 50 % 0 in /  0.0 mm
14:52 72.7 °F /  22.6 °C 53.4 °F /  11.9 °C 30.2 in /  1021.2 hPa NE 2 mph /  3.2 km/h 12 mph /  19.3 km/h 51 % 0 in /  0.0 mm
14:57 72.9 °F /  22.7 °C 53.1 °F /  11.7 °C 30.2 in /  1021.2 hPa West 4 mph /  6.4 km/h 8 mph /  12.9 km/h 50 % 0 in /  0.0 mm
15:02 73.2 °F /  22.9 °C 53.4 °F /  11.9 °C 30.2 in /  1021.2 hPa NNE 7 mph /  11.3 km/h 10 mph /  16.1 km/h 50 % 0 in /  0.0 mm
15:07 73.4 °F /  23.0 °C 52.5 °F /  11.4 °C 30.2 in /  1021.2 hPa WNW 4 mph /  6.4 km/h 10 mph /  16.1 km/h 48 % 0 in /  0.0 mm
15:12 73.2 °F /  22.9 °C 52.9 °F /  11.6 °C 30.2 in /  1021.2 hPa West 1 mph /  1.6 km/h 9 mph /  14.5 km/h 49 % 0 in /  0.0 mm
15:22 73.6 °F /  23.1 °C 52.7 °F /  11.5 °C 30.2 in /  1021.2 hPa WSW 3 mph /  4.8 km/h 9 mph /  14.5 km/h 48 % 0 in /  0.0 mm
15:27 73.8 °F /  23.2 °C 52.9 °F /  11.6 °C 30.2 in /  1021.2 hPa WNW 3 mph /  4.8 km/h 9 mph /  14.5 km/h 48 % 0 in /  0.0 mm
15:32 73.6 °F /  23.1 °C 51.4 °F /  10.8 °C 30.2 in /  1021.2 hPa SSE 3 mph /  4.8 km/h 9 mph /  14.5 km/h 46 % 0 in /  0.0 mm
15:42 74.7 °F /  23.7 °C 52.5 °F /  11.4 °C 30.2 in /  1020.9 hPa WNW 1 mph /  1.6 km/h 7 mph /  11.3 km/h 46 % 0 in /  0.0 mm
15:52 74.7 °F /  23.7 °C 51.3 °F /  10.7 °C 30.2 in /  1020.9 hPa SW 1 mph /  1.6 km/h 8 mph /  12.9 km/h 44 % 0 in /  0.0 mm
15:57 74.7 °F /  23.7 °C 52.5 °F /  11.4 °C 30.2 in /  1020.9 hPa WSW 4 mph /  6.4 km/h 8 mph /  12.9 km/h 46 % 0 in /  0.0 mm
16:02 74.3 °F /  23.5 °C 51.6 °F /  10.9 °C 30.2 in /  1020.9 hPa NNW 2 mph /  3.2 km/h 8 mph /  12.9 km/h 45 % 0 in /  0.0 mm
16:12 74.8 °F /  23.8 °C 53.2 °F /  11.8 °C 30.2 in /  1020.9 hPa West 2 mph /  3.2 km/h 7 mph /  11.3 km/h 47 % 0 in /  0.0 mm
16:17 74.5 °F /  23.6 °C 51.8 °F /  11.0 °C 30.2 in /  1020.9 hPa Calm   9 mph /  14.5 km/h 45 % 0 in /  0.0 mm
16:22 74.7 °F /  23.7 °C 52 °F /  11.1 °C 30.2 in /  1020.9 hPa WNW 4 mph /  6.4 km/h 9 mph /  14.5 km/h 45 % 0 in /  0.0 mm
16:32 74.8 °F /  23.8 °C 51.4 °F /  10.8 °C 30.2 in /  1020.9 hPa NW 1 mph /  1.6 km/h 7 mph /  11.3 km/h 44 % 0 in /  0.0 mm
16:37 74.8 °F /  23.8 °C 51.4 °F /  10.8 °C 30.2 in /  1020.9 hPa WNW 4 mph /  6.4 km/h 9 mph /  14.5 km/h 44 % 0 in /  0.0 mm
16:42 74.7 °F /  23.7 °C 51.3 °F /  10.7 °C 30.2 in /  1020.9 hPa West 4 mph /  6.4 km/h 9 mph /  14.5 km/h 44 % 0 in /  0.0 mm
16:47 74.8 °F /  23.8 °C 50.9 °F /  10.5 °C 30.1 in /  1020.5 hPa Calm   8 mph /  12.9 km/h 43 % 0 in /  0.0 mm
16:52 75.7 °F /  24.3 °C 51.6 °F /  10.9 °C 30.1 in /  1020.5 hPa WNW 5 mph /  8.0 km/h 8 mph /  12.9 km/h 43 % 0 in /  0.0 mm
16:57 76.1 °F /  24.5 °C 52 °F /  11.1 °C 30.1 in /  1020.5 hPa NW 2 mph /  3.2 km/h 9 mph /  14.5 km/h 43 % 0 in /  0.0 mm
17:02 75.9 °F /  24.4 °C 51.8 °F /  11.0 °C 30.1 in /  1020.5 hPa WNW 2 mph /  3.2 km/h 9 mph /  14.5 km/h 43 % 0 in /  0.0 mm
17:12 75.6 °F /  24.2 °C 51.4 °F /  10.8 °C 30.1 in /  1020.5 hPa North 2 mph /  3.2 km/h 9 mph /  14.5 km/h 43 % 0 in /  0.0 mm
17:17 75 °F /  23.9 °C 51.1 °F /  10.6 °C 30.1 in /  1020.2 hPa ENE 2 mph /  3.2 km/h 8 mph /  12.9 km/h 43 % 0 in /  0.0 mm
17:22 75 °F /  23.9 °C 51.6 °F /  10.9 °C 30.1 in /  1020.5 hPa NNW 4 mph /  6.4 km/h 8 mph /  12.9 km/h 44 % 0 in /  0.0 mm
17:32 75.7 °F /  24.3 °C 51.1 °F /  10.6 °C 30.1 in /  1020.5 hPa SSW 2 mph /  3.2 km/h 8 mph /  12.9 km/h 42 % 0 in /  0.0 mm
17:42 76.5 °F /  24.7 °C 52.3 °F /  11.3 °C 30.1 in /  1020.2 hPa Calm   4 mph /  6.4 km/h 43 % 0 in /  0.0 mm
17:47 76.6 °F /  24.8 °C 52.5 °F /  11.4 °C 30.1 in /  1020.2 hPa NNW 4 mph /  6.4 km/h 5 mph /  8.0 km/h 43 % 0 in /  0.0 mm
17:52 76.3 °F /  24.6 °C 52.2 °F /  11.2 °C 30.1 in /  1020.2 hPa WSW 3 mph /  4.8 km/h 5 mph /  8.0 km/h 43 % 0 in /  0.0 mm
17:57 75.9 °F /  24.4 °C 52.5 °F /  11.4 °C 30.1 in /  1020.2 hPa WNW 4 mph /  6.4 km/h 5 mph /  8.0 km/h 44 % 0 in /  0.0 mm
18:02 75.6 °F /  24.2 °C 52.7 °F /  11.5 °C 30.1 in /  1020.2 hPa WNW 2 mph /  3.2 km/h 8 mph /  12.9 km/h 45 % 0 in /  0.0 mm
18:07 75.7 °F /  24.3 °C 53.4 °F /  11.9 °C 30.1 in /  1020.2 hPa WNW 6 mph /  9.7 km/h 8 mph /  12.9 km/h 46 % 0 in /  0.0 mm
18:12 75.4 °F /  24.1 °C 52.5 °F /  11.4 °C 30.1 in /  1020.2 hPa West 3 mph /  4.8 km/h 9 mph /  14.5 km/h 45 % 0 in /  0.0 mm
18:17 75.4 °F /  24.1 °C 52 °F /  11.1 °C 30.1 in /  1020.2 hPa Calm   9 mph /  14.5 km/h 44 % 0 in /  0.0 mm
18:22 75.6 °F /  24.2 °C 53.2 °F /  11.8 °C 30.1 in /  1020.2 hPa WNW 4 mph /  6.4 km/h 9 mph /  14.5 km/h 46 % 0 in /  0.0 mm
18:27 75.4 °F /  24.1 °C 52 °F /  11.1 °C 30.1 in /  1020.2 hPa West 2 mph /  3.2 km/h 9 mph /  14.5 km/h 44 % 0 in /  0.0 mm
18:32 75.7 °F /  24.3 °C 53.4 °F /  11.9 °C 30.1 in /  1020.2 hPa WNW 5 mph /  8.0 km/h 9 mph /  14.5 km/h 46 % 0 in /  0.0 mm
18:42 75.4 °F /  24.1 °C 53.2 °F /  11.8 °C 30.1 in /  1020.2 hPa WNW 3 mph /  4.8 km/h 8 mph /  12.9 km/h 46 % 0 in /  0.0 mm
18:47 75.9 °F /  24.4 °C 53.1 °F /  11.7 °C 30.1 in /  1019.9 hPa Calm   8 mph /  12.9 km/h 45 % 0 in /  0.0 mm
18:52 75.7 °F /  24.3 °C 52.9 °F /  11.6 °C 30.1 in /  1019.9 hPa WNW 2 mph /  3.2 km/h 8 mph /  12.9 km/h 45 % 0 in /  0.0 mm
18:57 75.6 °F /  24.2 °C 54.5 °F /  12.5 °C 30.1 in /  1019.9 hPa WNW 1 mph /  1.6 km/h 8 mph /  12.9 km/h 48 % 0 in /  0.0 mm
19:02 75.4 °F /  24.1 °C 53.8 °F /  12.1 °C 30.1 in /  1019.9 hPa WNW 4 mph /  6.4 km/h 8 mph /  12.9 km/h 47 % 0 in /  0.0 mm
19:07 75.6 °F /  24.2 °C 53.2 °F /  11.8 °C 30.1 in /  1019.9 hPa NW 2 mph /  3.2 km/h 8 mph /  12.9 km/h 46 % 0 in /  0.0 mm
19:12 75.4 °F /  24.1 °C 52.5 °F /  11.4 °C 30.1 in /  1019.9 hPa NNE 4 mph /  6.4 km/h 8 mph /  12.9 km/h 45 % 0 in /  0.0 mm
19:17 75.4 °F /  24.1 °C 53.2 °F /  11.8 °C 30.1 in /  1019.9 hPa WNW 2 mph /  3.2 km/h 8 mph /  12.9 km/h 46 % 0 in /  0.0 mm
19:22 75.6 °F /  24.2 °C 52.7 °F /  11.5 °C 30.1 in /  1019.9 hPa WNW 1 mph /  1.6 km/h 6 mph /  9.7 km/h 45 % 0 in /  0.0 mm
19:27 74.8 °F /  23.8 °C 52.7 °F /  11.5 °C 30.1 in /  1019.9 hPa North 5 mph /  8.0 km/h 6 mph /  9.7 km/h 46 % 0 in /  0.0 mm
19:32 74.3 °F /  23.5 °C 52.2 °F /  11.2 °C 30.1 in /  1019.9 hPa NNW 3 mph /  4.8 km/h 10 mph /  16.1 km/h 46 % 0 in /  0.0 mm
19:37 74.5 °F /  23.6 °C 52.9 °F /  11.6 °C 30.1 in /  1019.9 hPa WSW 1 mph /  1.6 km/h 10 mph /  16.1 km/h 47 % 0 in /  0.0 mm
19:42 74.7 °F /  23.7 °C 52.5 °F /  11.4 °C 30.1 in /  1019.9 hPa NW 2 mph /  3.2 km/h 10 mph /  16.1 km/h 46 % 0 in /  0.0 mm
19:47 75 °F /  23.9 °C 52.2 °F /  11.2 °C 30.1 in /  1019.9 hPa NNW 3 mph /  4.8 km/h 5 mph /  8.0 km/h 45 % 0 in /  0.0 mm
19:52 74.5 °F /  23.6 °C 51.8 °F /  11.0 °C 30.1 in /  1019.9 hPa NNW 6 mph /  9.7 km/h 6 mph /  9.7 km/h 45 % 0 in /  0.0 mm
19:57 74.1 °F /  23.4 °C 52 °F /  11.1 °C 30.1 in /  1019.9 hPa NW 1 mph /  1.6 km/h 7 mph /  11.3 km/h 46 % 0 in /  0.0 mm
20:02 74.5 °F /  23.6 °C 52.3 °F /  11.3 °C 30.1 in /  1019.9 hPa NW 2 mph /  3.2 km/h 7 mph /  11.3 km/h 46 % 0 in /  0.0 mm
20:07 74.5 °F /  23.6 °C 52.3 °F /  11.3 °C 30.1 in /  1019.9 hPa Calm   6 mph /  9.7 km/h 46 % 0 in /  0.0 mm
20:12 74.7 °F /  23.7 °C 52.5 °F /  11.4 °C 30.1 in /  1019.9 hPa West 1 mph /  1.6 km/h 4 mph /  6.4 km/h 46 % 0 in /  0.0 mm
20:17 74.5 °F /  23.6 °C 51.8 °F /  11.0 °C 30.1 in /  1019.9 hPa NNW 2 mph /  3.2 km/h 4 mph /  6.4 km/h 45 % 0 in /  0.0 mm
20:22 74.1 °F /  23.4 °C 52.5 °F /  11.4 °C 30.1 in /  1019.9 hPa North 3 mph /  4.8 km/h 4 mph /  6.4 km/h 47 % 0 in /  0.0 mm
20:32 72.9 °F /  22.7 °C 53.1 °F /  11.7 °C 30.1 in /  1019.9 hPa NNE 2 mph /  3.2 km/h 5 mph /  8.0 km/h 50 % 0 in /  0.0 mm
20:37 72.3 °F /  22.4 °C 53.8 °F /  12.1 °C 30.1 in /  1019.9 hPa ENE 2 mph /  3.2 km/h 5 mph /  8.0 km/h 52 % 0 in /  0.0 mm
20:42 71.6 °F /  22.0 °C 53.6 °F /  12.0 °C 30.1 in /  1019.9 hPa NNE 2 mph /  3.2 km/h 6 mph /  9.7 km/h 53 % 0 in /  0.0 mm
20:52 70.9 °F /  21.6 °C 52.9 °F /  11.6 °C 30.1 in /  1019.9 hPa NNW 1 mph /  1.6 km/h 7 mph /  11.3 km/h 53 % 0 in /  0.0 mm
20:57 70.7 °F /  21.5 °C 52.7 °F /  11.5 °C 30.1 in /  1019.9 hPa NNW 3 mph /  4.8 km/h 7 mph /  11.3 km/h 53 % 0 in /  0.0 mm
21:07 70.2 °F /  21.2 °C 52.7 °F /  11.5 °C 30.1 in /  1019.9 hPa NNW 2 mph /  3.2 km/h 7 mph /  11.3 km/h 54 % 0 in /  0.0 mm
21:12 70 °F /  21.1 °C 53.1 °F /  11.7 °C 30.1 in /  1019.9 hPa North 1 mph /  1.6 km/h 7 mph /  11.3 km/h 55 % 0 in /  0.0 mm
21:17 69.6 °F /  20.9 °C 53.2 °F /  11.8 °C 30.1 in /  1019.9 hPa NNW 1 mph /  1.6 km/h 4 mph /  6.4 km/h 56 % 0 in /  0.0 mm
21:22 69.1 °F /  20.6 °C 52.7 °F /  11.5 °C 30.1 in /  1019.9 hPa NNW 2 mph /  3.2 km/h 4 mph /  6.4 km/h 56 % 0 in /  0.0 mm
21:27 68.5 °F /  20.3 °C 52.7 °F /  11.5 °C 30.1 in /  1019.9 hPa Calm   4 mph /  6.4 km/h 57 % 0 in /  0.0 mm
21:32 67.8 °F /  19.9 °C 52 °F /  11.1 °C 30.1 in /  1019.9 hPa NNW 3 mph /  4.8 km/h 4 mph /  6.4 km/h 57 % 0 in /  0.0 mm
21:42 66.7 °F /  19.3 °C 52 °F /  11.1 °C 30.1 in /  1019.9 hPa North 2 mph /  3.2 km/h 4 mph /  6.4 km/h 59 % 0 in /  0.0 mm
21:47 66.2 °F /  19.0 °C 52 °F /  11.1 °C 30.1 in /  1019.9 hPa NNW 1 mph /  1.6 km/h 4 mph /  6.4 km/h 60 % 0 in /  0.0 mm
21:52 65.8 °F /  18.8 °C 52 °F /  11.1 °C 30.1 in /  1019.9 hPa NNW 2 mph /  3.2 km/h 4 mph /  6.4 km/h 61 % 0 in /  0.0 mm
21:57 65.5 °F /  18.6 °C 52.2 °F /  11.2 °C 30.1 in /  1019.9 hPa NNW 1 mph /  1.6 km/h 3 mph /  4.8 km/h 62 % 0 in /  0.0 mm
22:02 64.9 °F /  18.3 °C 51.6 °F /  10.9 °C 30.1 in /  1020.2 hPa North 1 mph /  1.6 km/h 2 mph /  3.2 km/h 62 % 0 in /  0.0 mm
22:12 64.6 °F /  18.1 °C 52.2 °F /  11.2 °C 30.1 in /  1020.2 hPa North 1 mph /  1.6 km/h 4 mph /  6.4 km/h 64 % 0 in /  0.0 mm
22:22 64 °F /  17.8 °C 52.5 °F /  11.4 °C 30.1 in /  1020.2 hPa North 2 mph /  3.2 km/h 4 mph /  6.4 km/h 66 % 0 in /  0.0 mm
22:32 63.3 °F /  17.4 °C 52.2 °F /  11.2 °C 30.1 in /  1020.5 hPa Calm   2 mph /  3.2 km/h 67 % 0 in /  0.0 mm
22:42 62.6 °F /  17.0 °C 52.3 °F /  11.3 °C 30.1 in /  1020.5 hPa Calm   1 mph /  1.6 km/h 69 % 0 in /  0.0 mm
22:47 62.2 °F /  16.8 °C 52.3 °F /  11.3 °C 30.1 in /  1020.5 hPa NE 3 mph /  4.8 km/h 3 mph /  4.8 km/h 70 % 0 in /  0.0 mm
22:52 62.1 °F /  16.7 °C 52.5 °F /  11.4 °C 30.1 in /  1020.5 hPa NNW 1 mph /  1.6 km/h 3 mph /  4.8 km/h 71 % 0 in /  0.0 mm
23:02 61.2 °F /  16.2 °C 52.5 °F /  11.4 °C 30.1 in /  1020.5 hPa NNE 3 mph /  4.8 km/h 5 mph /  8.0 km/h 73 % 0 in /  0.0 mm
23:07 61.2 °F /  16.2 °C 52.5 °F /  11.4 °C 30.1 in /  1020.5 hPa NNW 2 mph /  3.2 km/h 5 mph /  8.0 km/h 73 % 0 in /  0.0 mm
23:12 61.2 °F /  16.2 °C 52.5 °F /  11.4 °C 30.1 in /  1020.5 hPa NNW 2 mph /  3.2 km/h 6 mph /  9.7 km/h 73 % 0 in /  0.0 mm
23:17 61 °F /  16.1 °C 52.3 °F /  11.3 °C 30.1 in /  1020.5 hPa North 2 mph /  3.2 km/h 6 mph /  9.7 km/h 73 % 0 in /  0.0 mm
23:22 61 °F /  16.1 °C 52.3 °F /  11.3 °C 30.1 in /  1020.2 hPa NE 3 mph /  4.8 km/h 4 mph /  6.4 km/h 73 % 0 in /  0.0 mm
23:32 60.6 °F /  15.9 °C 52 °F /  11.1 °C 30.1 in /  1020.2 hPa NNE 2 mph /  3.2 km/h 6 mph /  9.7 km/h 73 % 0 in /  0.0 mm
23:37 60.4 °F /  15.8 °C 52.2 °F /  11.2 °C 30.1 in /  1020.2 hPa Calm   6 mph /  9.7 km/h 74 % 0 in /  0.0 mm
23:42 60.4 °F /  15.8 °C 52.2 °F /  11.2 °C 30.1 in /  1020.2 hPa NNW 1 mph /  1.6 km/h 5 mph /  8.0 km/h 74 % 0 in /  0.0 mm
23:47 60.6 °F /  15.9 °C 52 °F /  11.1 °C 30.1 in /  1020.5 hPa NW 2 mph /  3.2 km/h 5 mph /  8.0 km/h 73 % 0 in /  0.0 mm
23:52 60.8 °F /  16.0 °C 51.8 °F /  11.0 °C 30.1 in /  1020.5 hPa NNW 1 mph /  1.6 km/h 4 mph /  6.4 km/h 72 % 0 in /  0.0 mm
23:57 60.6 °F /  15.9 °C 52 °F /  11.1 °C 30.1 in /  1020.5 hPa North 3 mph /  4.8 km/h 4 mph /  6.4 km/h 73 % 0 in /  0.0 mm
Meteo18
Compliments of Weather Underground - 4 mb

Script developed by  Jim McMurry - jmcmurry@mwt.net Adapted for the template by  Wim van der Kuil - Leuven-Template.eu

You find our weather info also at:

European Weather Network

Weather Underground

Equipment we use:

Weather-station
Davis Vue

Weather-program
Meteohub

Weather-server
Raspberry PI 2 B+

Provider
1 and 1

Davis Vue

Meteohub

Raspberry PI 2 B+

1 and 1